sensor_id;sensor_type;location;lat;lon;timestamp;P1;durP1;ratioP1;P2;durP2;ratioP2
31764;SDS011;18338;53.240;8.798;2023-05-28T00:00:55;11.15;;;5.75;;
31764;SDS011;18338;53.240;8.798;2023-05-28T00:03:23;13.13;;;5.65;;
31764;SDS011;18338;53.240;8.798;2023-05-28T00:05:51;12.63;;;5.70;;
31764;SDS011;18338;53.240;8.798;2023-05-28T00:08:19;12.18;;;5.35;;
31764;SDS011;18338;53.240;8.798;2023-05-28T00:10:46;11.07;;;5.32;;
31764;SDS011;18338;53.240;8.798;2023-05-28T00:13:13;8.55;;;5.50;;
31764;SDS011;18338;53.240;8.798;2023-05-28T00:15:40;15.40;;;5.97;;
31764;SDS011;18338;53.240;8.798;2023-05-28T00:18:07;10.73;;;6.00;;
31764;SDS011;18338;53.240;8.798;2023-05-28T00:20:38;12.13;;;6.25;;
31764;SDS011;18338;53.240;8.798;2023-05-28T00:23:04;13.25;;;6.13;;
31764;SDS011;18338;53.240;8.798;2023-05-28T00:25:32;12.82;;;6.30;;
31764;SDS011;18338;53.240;8.798;2023-05-28T00:27:58;13.00;;;5.82;;
31764;SDS011;18338;53.240;8.798;2023-05-28T00:30:25;15.43;;;6.25;;
31764;SDS011;18338;53.240;8.798;2023-05-28T00:32:52;12.73;;;6.70;;
31764;SDS011;18338;53.240;8.798;2023-05-28T00:35:18;15.25;;;6.60;;
31764;SDS011;18338;53.240;8.798;2023-05-28T00:37:45;11.77;;;6.43;;
31764;SDS011;18338;53.240;8.798;2023-05-28T00:40:12;11.70;;;5.82;;
31764;SDS011;18338;53.240;8.798;2023-05-28T00:42:42;14.98;;;6.30;;
31764;SDS011;18338;53.240;8.798;2023-05-28T00:45:09;11.98;;;5.97;;
31764;SDS011;18338;53.240;8.798;2023-05-28T00:47:36;11.65;;;6.05;;
31764;SDS011;18338;53.240;8.798;2023-05-28T00:50:03;18.58;;;6.88;;
31764;SDS011;18338;53.240;8.798;2023-05-28T00:52:33;11.13;;;6.28;;
31764;SDS011;18338;53.240;8.798;2023-05-28T00:55:01;15.40;;;6.25;;
31764;SDS011;18338;53.240;8.798;2023-05-28T00:57:28;14.05;;;6.78;;
31764;SDS011;18338;53.240;8.798;2023-05-28T00:59:55;13.73;;;6.90;;
31764;SDS011;18338;53.240;8.798;2023-05-28T01:02:22;19.45;;;7.70;;
31764;SDS011;18338;53.240;8.798;2023-05-28T01:04:49;15.30;;;6.85;;
31764;SDS011;18338;53.240;8.798;2023-05-28T01:07:17;13.57;;;6.38;;
31764;SDS011;18338;53.240;8.798;2023-05-28T01:09:44;11.23;;;7.07;;
31764;SDS011;18338;53.240;8.798;2023-05-28T01:12:10;13.57;;;7.30;;
31764;SDS011;18338;53.240;8.798;2023-05-28T01:14:38;15.57;;;7.22;;
31764;SDS011;18338;53.240;8.798;2023-05-28T01:17:05;19.15;;;7.47;;
31764;SDS011;18338;53.240;8.798;2023-05-28T01:19:32;16.83;;;6.90;;
31764;SDS011;18338;53.240;8.798;2023-05-28T01:22:03;18.50;;;7.60;;
31764;SDS011;18338;53.240;8.798;2023-05-28T01:24:31;14.75;;;7.32;;
31764;SDS011;18338;53.240;8.798;2023-05-28T01:27:00;14.40;;;7.15;;
31764;SDS011;18338;53.240;8.798;2023-05-28T01:29:28;17.00;;;7.60;;
31764;SDS011;18338;53.240;8.798;2023-05-28T01:31:55;17.08;;;7.95;;
31764;SDS011;18338;53.240;8.798;2023-05-28T01:34:24;15.95;;;7.43;;
31764;SDS011;18338;53.240;8.798;2023-05-28T01:36:53;17.73;;;7.47;;
31764;SDS011;18338;53.240;8.798;2023-05-28T01:39:35;13.30;;;6.68;;
31764;SDS011;18338;53.240;8.798;2023-05-28T01:42:16;18.58;;;7.22;;
31764;SDS011;18338;53.240;8.798;2023-05-28T01:44:45;11.20;;;6.82;;
31764;SDS011;18338;53.240;8.798;2023-05-28T01:47:13;13.02;;;7.38;;
31764;SDS011;18338;53.240;8.798;2023-05-28T01:49:41;13.25;;;7.57;;
31764;SDS011;18338;53.240;8.798;2023-05-28T01:52:07;16.73;;;7.78;;
31764;SDS011;18338;53.240;8.798;2023-05-28T01:54:43;13.40;;;7.53;;
31764;SDS011;18338;53.240;8.798;2023-05-28T01:57:30;13.77;;;8.05;;
31764;SDS011;18338;53.240;8.798;2023-05-28T01:59:57;15.32;;;7.85;;
31764;SDS011;18338;53.240;8.798;2023-05-28T02:02:24;16.50;;;8.60;;
31764;SDS011;18338;53.240;8.798;2023-05-28T02:04:58;20.30;;;7.90;;
31764;SDS011;18338;53.240;8.798;2023-05-28T02:07:35;16.58;;;8.57;;
31764;SDS011;18338;53.240;8.798;2023-05-28T02:10:09;15.65;;;9.18;;
31764;SDS011;18338;53.240;8.798;2023-05-28T02:12:36;21.13;;;8.90;;
31764;SDS011;18338;53.240;8.798;2023-05-28T02:15:03;18.90;;;8.23;;
31764;SDS011;18338;53.240;8.798;2023-05-28T02:17:30;13.88;;;7.80;;
31764;SDS011;18338;53.240;8.798;2023-05-28T02:19:57;15.18;;;7.65;;
31764;SDS011;18338;53.240;8.798;2023-05-28T02:22:24;17.25;;;9.05;;
31764;SDS011;18338;53.240;8.798;2023-05-28T02:24:59;18.23;;;9.63;;
31764;SDS011;18338;53.240;8.798;2023-05-28T02:27:26;19.88;;;8.90;;
31764;SDS011;18338;53.240;8.798;2023-05-28T02:29:58;18.77;;;8.82;;
31764;SDS011;18338;53.240;8.798;2023-05-28T02:32:39;19.85;;;8.48;;
31764;SDS011;18338;53.240;8.798;2023-05-28T02:35:06;18.88;;;8.80;;
31764;SDS011;18338;53.240;8.798;2023-05-28T02:37:33;17.83;;;8.98;;
31764;SDS011;18338;53.240;8.798;2023-05-28T02:40:00;16.85;;;8.60;;
31764;SDS011;18338;53.240;8.798;2023-05-28T02:42:36;18.13;;;9.13;;
31764;SDS011;18338;53.240;8.798;2023-05-28T02:45:10;20.38;;;8.82;;
31764;SDS011;18338;53.240;8.798;2023-05-28T02:47:39;15.82;;;8.68;;
31764;SDS011;18338;53.240;8.798;2023-05-28T02:50:26;24.45;;;9.30;;
31764;SDS011;18338;53.240;8.798;2023-05-28T02:52:53;19.60;;;9.38;;
31764;SDS011;18338;53.240;8.798;2023-05-28T02:55:34;18.10;;;9.40;;
31764;SDS011;18338;53.240;8.798;2023-05-28T02:58:01;22.42;;;9.40;;
31764;SDS011;18338;53.240;8.798;2023-05-28T03:00:42;21.10;;;9.82;;
31764;SDS011;18338;53.240;8.798;2023-05-28T03:03:13;16.95;;;9.68;;
31764;SDS011;18338;53.240;8.798;2023-05-28T03:05:41;16.25;;;10.05;;
31764;SDS011;18338;53.240;8.798;2023-05-28T03:08:08;15.80;;;8.90;;
31764;SDS011;18338;53.240;8.798;2023-05-28T03:10:34;18.05;;;9.75;;
31764;SDS011;18338;53.240;8.798;2023-05-28T03:13:01;22.38;;;9.70;;
31764;SDS011;18338;53.240;8.798;2023-05-28T03:15:40;17.17;;;9.90;;
31764;SDS011;18338;53.240;8.798;2023-05-28T03:18:08;19.77;;;10.13;;
31764;SDS011;18338;53.240;8.798;2023-05-28T03:20:42;20.40;;;9.93;;
31764;SDS011;18338;53.240;8.798;2023-05-28T03:23:14;16.58;;;9.23;;
31764;SDS011;18338;53.240;8.798;2023-05-28T03:25:47;19.95;;;10.40;;
31764;SDS011;18338;53.240;8.798;2023-05-28T03:28:14;17.15;;;9.60;;
31764;SDS011;18338;53.240;8.798;2023-05-28T03:30:41;15.55;;;9.88;;
31764;SDS011;18338;53.240;8.798;2023-05-28T03:33:08;18.08;;;9.57;;
31764;SDS011;18338;53.240;8.798;2023-05-28T03:35:34;21.52;;;9.05;;
31764;SDS011;18338;53.240;8.798;2023-05-28T03:38:01;18.73;;;9.95;;
31764;SDS011;18338;53.240;8.798;2023-05-28T03:40:30;25.42;;;11.05;;
31764;SDS011;18338;53.240;8.798;2023-05-28T03:43:03;21.05;;;9.50;;
31764;SDS011;18338;53.240;8.798;2023-05-28T03:45:31;22.50;;;9.77;;
31764;SDS011;18338;53.240;8.798;2023-05-28T03:48:17;16.40;;;9.25;;
31764;SDS011;18338;53.240;8.798;2023-05-28T03:50:51;21.70;;;10.27;;
31764;SDS011;18338;53.240;8.798;2023-05-28T03:53:20;20.80;;;9.85;;
31764;SDS011;18338;53.240;8.798;2023-05-28T03:55:46;14.73;;;9.20;;
31764;SDS011;18338;53.240;8.798;2023-05-28T03:58:13;16.17;;;8.75;;
31764;SDS011;18338;53.240;8.798;2023-05-28T04:00:42;19.60;;;8.93;;
31764;SDS011;18338;53.240;8.798;2023-05-28T04:03:08;17.90;;;9.10;;
31764;SDS011;18338;53.240;8.798;2023-05-28T04:05:59;18.40;;;9.30;;
31764;SDS011;18338;53.240;8.798;2023-05-28T04:09:02;17.27;;;9.18;;
31764;SDS011;18338;53.240;8.798;2023-05-28T04:11:45;16.02;;;8.35;;
31764;SDS011;18338;53.240;8.798;2023-05-28T04:14:34;14.63;;;8.40;;
31764;SDS011;18338;53.240;8.798;2023-05-28T04:17:09;16.90;;;9.48;;
31764;SDS011;18338;53.240;8.798;2023-05-28T04:19:59;19.05;;;8.43;;
31764;SDS011;18338;53.240;8.798;2023-05-28T04:23:05;19.30;;;8.45;;
31764;SDS011;18338;53.240;8.798;2023-05-28T04:25:37;14.82;;;7.90;;
31764;SDS011;18338;53.240;8.798;2023-05-28T04:28:04;14.05;;;8.02;;
31764;SDS011;18338;53.240;8.798;2023-05-28T04:30:57;15.40;;;7.85;;
31764;SDS011;18338;53.240;8.798;2023-05-28T04:33:36;13.80;;;7.70;;
31764;SDS011;18338;53.240;8.798;2023-05-28T04:36:15;15.02;;;8.15;;
31764;SDS011;18338;53.240;8.798;2023-05-28T04:38:46;14.32;;;8.10;;
31764;SDS011;18338;53.240;8.798;2023-05-28T04:41:19;13.02;;;7.95;;
31764;SDS011;18338;53.240;8.798;2023-05-28T04:44:02;16.95;;;8.15;;
31764;SDS011;18338;53.240;8.798;2023-05-28T04:46:28;14.57;;;8.02;;
31764;SDS011;18338;53.240;8.798;2023-05-28T04:48:56;13.18;;;7.68;;
31764;SDS011;18338;53.240;8.798;2023-05-28T04:51:23;14.35;;;7.82;;
31764;SDS011;18338;53.240;8.798;2023-05-28T04:53:51;15.93;;;7.32;;
31764;SDS011;18338;53.240;8.798;2023-05-28T04:56:25;13.65;;;7.50;;
31764;SDS011;18338;53.240;8.798;2023-05-28T04:59:12;12.80;;;7.07;;
31764;SDS011;18338;53.240;8.798;2023-05-28T05:01:38;12.25;;;7.03;;
31764;SDS011;18338;53.240;8.798;2023-05-28T05:04:06;14.02;;;6.68;;
31764;SDS011;18338;53.240;8.798;2023-05-28T05:06:33;12.88;;;7.28;;
31764;SDS011;18338;53.240;8.798;2023-05-28T05:09:02;12.70;;;7.78;;
31764;SDS011;18338;53.240;8.798;2023-05-28T05:11:31;12.88;;;6.50;;
31764;SDS011;18338;53.240;8.798;2023-05-28T05:13:57;13.60;;;7.20;;
31764;SDS011;18338;53.240;8.798;2023-05-28T05:16:24;12.75;;;6.82;;
31764;SDS011;18338;53.240;8.798;2023-05-28T05:18:51;14.43;;;6.35;;
31764;SDS011;18338;53.240;8.798;2023-05-28T05:21:38;13.70;;;6.55;;
31764;SDS011;18338;53.240;8.798;2023-05-28T05:24:07;11.57;;;6.40;;
31764;SDS011;18338;53.240;8.798;2023-05-28T05:27:07;12.07;;;6.28;;
31764;SDS011;18338;53.240;8.798;2023-05-28T05:29:43;10.75;;;6.43;;
31764;SDS011;18338;53.240;8.798;2023-05-28T05:32:10;11.32;;;6.60;;
31764;SDS011;18338;53.240;8.798;2023-05-28T05:35:00;11.73;;;6.78;;
31764;SDS011;18338;53.240;8.798;2023-05-28T05:38:11;12.57;;;6.32;;
31764;SDS011;18338;53.240;8.798;2023-05-28T05:41:18;14.38;;;6.55;;
31764;SDS011;18338;53.240;8.798;2023-05-28T05:43:51;9.65;;;6.65;;
31764;SDS011;18338;53.240;8.798;2023-05-28T05:46:19;9.48;;;6.07;;
31764;SDS011;18338;53.240;8.798;2023-05-28T05:49:06;12.07;;;6.03;;
31764;SDS011;18338;53.240;8.798;2023-05-28T05:51:56;10.85;;;6.13;;
31764;SDS011;18338;53.240;8.798;2023-05-28T05:54:36;9.57;;;5.75;;
31764;SDS011;18338;53.240;8.798;2023-05-28T05:57:23;11.13;;;6.18;;
31764;SDS011;18338;53.240;8.798;2023-05-28T06:00:08;8.68;;;5.72;;
31764;SDS011;18338;53.240;8.798;2023-05-28T06:02:58;8.45;;;5.75;;
31764;SDS011;18338;53.240;8.798;2023-05-28T06:08:25;9.18;;;5.50;;
31764;SDS011;18338;53.240;8.798;2023-05-28T06:10:55;9.45;;;5.90;;
31764;SDS011;18338;53.240;8.798;2023-05-28T06:13:34;11.43;;;5.93;;
31764;SDS011;18338;53.240;8.798;2023-05-28T06:16:02;8.68;;;5.15;;
31764;SDS011;18338;53.240;8.798;2023-05-28T06:18:30;10.63;;;5.63;;
31764;SDS011;18338;53.240;8.798;2023-05-28T06:20:57;9.35;;;5.82;;
31764;SDS011;18338;53.240;8.798;2023-05-28T06:23:23;10.98;;;6.18;;
31764;SDS011;18338;53.240;8.798;2023-05-28T06:25:50;9.60;;;5.45;;
31764;SDS011;18338;53.240;8.798;2023-05-28T06:31:16;8.68;;;5.10;;
31764;SDS011;18338;53.240;8.798;2023-05-28T06:33:43;11.55;;;5.85;;
31764;SDS011;18338;53.240;8.798;2023-05-28T06:36:10;10.75;;;5.32;;
31764;SDS011;18338;53.240;8.798;2023-05-28T06:38:58;9.25;;;5.38;;
31764;SDS011;18338;53.240;8.798;2023-05-28T06:41:49;8.40;;;5.20;;
31764;SDS011;18338;53.240;8.798;2023-05-28T06:47:41;8.70;;;5.22;;
31764;SDS011;18338;53.240;8.798;2023-05-28T06:50:31;9.27;;;5.45;;
31764;SDS011;18338;53.240;8.798;2023-05-28T06:53:26;9.23;;;5.22;;
31764;SDS011;18338;53.240;8.798;2023-05-28T06:56:12;11.43;;;5.43;;
31764;SDS011;18338;53.240;8.798;2023-05-28T06:59:01;10.55;;;5.55;;
31764;SDS011;18338;53.240;8.798;2023-05-28T07:01:48;10.68;;;5.50;;
31764;SDS011;18338;53.240;8.798;2023-05-28T07:04:35;11.75;;;5.57;;
31764;SDS011;18338;53.240;8.798;2023-05-28T07:07:19;9.60;;;5.35;;
31764;SDS011;18338;53.240;8.798;2023-05-28T07:10:31;9.88;;;5.45;;
31764;SDS011;18338;53.240;8.798;2023-05-28T07:13:02;10.93;;;5.60;;
31764;SDS011;18338;53.240;8.798;2023-05-28T07:15:29;9.15;;;5.25;;
31764;SDS011;18338;53.240;8.798;2023-05-28T07:20:59;11.85;;;5.35;;
31764;SDS011;18338;53.240;8.798;2023-05-28T07:23:46;9.10;;;5.47;;
31764;SDS011;18338;53.240;8.798;2023-05-28T07:26:12;8.93;;;5.35;;
31764;SDS011;18338;53.240;8.798;2023-05-28T07:28:39;10.60;;;5.78;;
31764;SDS011;18338;53.240;8.798;2023-05-28T07:31:06;11.23;;;5.38;;
31764;SDS011;18338;53.240;8.798;2023-05-28T07:33:33;10.00;;;5.20;;
31764;SDS011;18338;53.240;8.798;2023-05-28T07:36:00;9.27;;;5.70;;
31764;SDS011;18338;53.240;8.798;2023-05-28T07:38:26;12.00;;;5.45;;
31764;SDS011;18338;53.240;8.798;2023-05-28T07:40:54;10.02;;;5.15;;
31764;SDS011;18338;53.240;8.798;2023-05-28T07:43:21;12.52;;;5.45;;
31764;SDS011;18338;53.240;8.798;2023-05-28T07:45:49;8.90;;;5.32;;
31764;SDS011;18338;53.240;8.798;2023-05-28T07:48:15;9.63;;;5.30;;
31764;SDS011;18338;53.240;8.798;2023-05-28T07:50:42;12.52;;;5.70;;
31764;SDS011;18338;53.240;8.798;2023-05-28T07:53:09;11.95;;;5.50;;
31764;SDS011;18338;53.240;8.798;2023-05-28T07:55:36;8.93;;;5.13;;
31764;SDS011;18338;53.240;8.798;2023-05-28T07:58:02;10.25;;;5.18;;
31764;SDS011;18338;53.240;8.798;2023-05-28T08:00:29;9.07;;;5.20;;
31764;SDS011;18338;53.240;8.798;2023-05-28T08:02:56;9.82;;;5.15;;
31764;SDS011;18338;53.240;8.798;2023-05-28T08:05:22;8.27;;;4.65;;
31764;SDS011;18338;53.240;8.798;2023-05-28T08:07:50;9.93;;;5.18;;
31764;SDS011;18338;53.240;8.798;2023-05-28T08:10:17;9.23;;;4.68;;
31764;SDS011;18338;53.240;8.798;2023-05-28T08:12:43;11.20;;;4.72;;
31764;SDS011;18338;53.240;8.798;2023-05-28T08:15:10;10.13;;;4.32;;
31764;SDS011;18338;53.240;8.798;2023-05-28T08:17:37;6.32;;;4.32;;
31764;SDS011;18338;53.240;8.798;2023-05-28T08:20:04;10.48;;;4.35;;
31764;SDS011;18338;53.240;8.798;2023-05-28T08:22:32;7.25;;;3.78;;
31764;SDS011;18338;53.240;8.798;2023-05-28T08:24:59;9.80;;;3.70;;
31764;SDS011;18338;53.240;8.798;2023-05-28T08:27:26;9.27;;;4.22;;
31764;SDS011;18338;53.240;8.798;2023-05-28T08:29:52;10.10;;;4.20;;
31764;SDS011;18338;53.240;8.798;2023-05-28T08:32:19;9.00;;;4.28;;
31764;SDS011;18338;53.240;8.798;2023-05-28T08:34:46;7.78;;;4.15;;
31764;SDS011;18338;53.240;8.798;2023-05-28T08:37:12;7.68;;;4.20;;
31764;SDS011;18338;53.240;8.798;2023-05-28T08:39:39;8.82;;;4.80;;
31764;SDS011;18338;53.240;8.798;2023-05-28T08:42:06;7.53;;;4.88;;
31764;SDS011;18338;53.240;8.798;2023-05-28T08:44:33;7.32;;;4.30;;
31764;SDS011;18338;53.240;8.798;2023-05-28T08:47:00;8.55;;;4.60;;
31764;SDS011;18338;53.240;8.798;2023-05-28T08:49:45;9.00;;;4.93;;
31764;SDS011;18338;53.240;8.798;2023-05-28T08:52:17;9.60;;;4.95;;
31764;SDS011;18338;53.240;8.798;2023-05-28T08:54:46;7.78;;;3.92;;
31764;SDS011;18338;53.240;8.798;2023-05-28T08:57:16;10.65;;;4.82;;
31764;SDS011;18338;53.240;8.798;2023-05-28T08:59:44;8.18;;;4.10;;
31764;SDS011;18338;53.240;8.798;2023-05-28T09:02:12;7.28;;;4.18;;
31764;SDS011;18338;53.240;8.798;2023-05-28T09:04:40;10.20;;;5.32;;
31764;SDS011;18338;53.240;8.798;2023-05-28T09:07:07;8.63;;;4.70;;
31764;SDS011;18338;53.240;8.798;2023-05-28T09:09:34;7.90;;;4.05;;
31764;SDS011;18338;53.240;8.798;2023-05-28T09:12:05;10.00;;;4.70;;
31764;SDS011;18338;53.240;8.798;2023-05-28T09:14:37;7.60;;;4.20;;
31764;SDS011;18338;53.240;8.798;2023-05-28T09:17:06;6.63;;;4.10;;
31764;SDS011;18338;53.240;8.798;2023-05-28T09:19:39;8.02;;;4.47;;
31764;SDS011;18338;53.240;8.798;2023-05-28T09:22:17;10.85;;;4.57;;
31764;SDS011;18338;53.240;8.798;2023-05-28T09:24:49;9.32;;;4.30;;
31764;SDS011;18338;53.240;8.798;2023-05-28T09:27:16;6.88;;;3.80;;
31764;SDS011;18338;53.240;8.798;2023-05-28T09:29:46;7.90;;;4.60;;
31764;SDS011;18338;53.240;8.798;2023-05-28T09:32:17;5.35;;;4.00;;
31764;SDS011;18338;53.240;8.798;2023-05-28T09:34:48;9.98;;;4.18;;
31764;SDS011;18338;53.240;8.798;2023-05-28T09:37:16;8.82;;;4.13;;
31764;SDS011;18338;53.240;8.798;2023-05-28T09:39:44;6.97;;;3.80;;
31764;SDS011;18338;53.240;8.798;2023-05-28T09:42:10;6.53;;;3.88;;
31764;SDS011;18338;53.240;8.798;2023-05-28T09:44:39;7.80;;;3.88;;
31764;SDS011;18338;53.240;8.798;2023-05-28T09:47:16;7.97;;;4.28;;
31764;SDS011;18338;53.240;8.798;2023-05-28T09:49:44;7.95;;;4.75;;
31764;SDS011;18338;53.240;8.798;2023-05-28T09:52:15;7.90;;;4.65;;
31764;SDS011;18338;53.240;8.798;2023-05-28T09:54:50;6.55;;;4.28;;
31764;SDS011;18338;53.240;8.798;2023-05-28T09:57:26;9.45;;;4.30;;
31764;SDS011;18338;53.240;8.798;2023-05-28T09:59:56;10.30;;;4.63;;
31764;SDS011;18338;53.240;8.798;2023-05-28T10:05:43;7.55;;;4.35;;
31764;SDS011;18338;53.240;8.798;2023-05-28T10:08:15;8.30;;;4.65;;
31764;SDS011;18338;53.240;8.798;2023-05-28T10:10:46;8.18;;;4.47;;
31764;SDS011;18338;53.240;8.798;2023-05-28T10:13:18;10.88;;;4.80;;
31764;SDS011;18338;53.240;8.798;2023-05-28T10:15:45;8.50;;;5.05;;
31764;SDS011;18338;53.240;8.798;2023-05-28T10:18:13;7.28;;;4.20;;
31764;SDS011;18338;53.240;8.798;2023-05-28T10:20:41;6.30;;;4.28;;
31764;SDS011;18338;53.240;8.798;2023-05-28T10:23:08;9.48;;;4.63;;
31764;SDS011;18338;53.240;8.798;2023-05-28T10:25:36;10.60;;;4.43;;
31764;SDS011;18338;53.240;8.798;2023-05-28T10:28:03;6.55;;;4.50;;
31764;SDS011;18338;53.240;8.798;2023-05-28T10:30:32;7.25;;;4.38;;
31764;SDS011;18338;53.240;8.798;2023-05-28T10:33:16;9.52;;;4.35;;
31764;SDS011;18338;53.240;8.798;2023-05-28T10:35:50;5.75;;;3.53;;
31764;SDS011;18338;53.240;8.798;2023-05-28T10:38:22;8.07;;;4.32;;
31764;SDS011;18338;53.240;8.798;2023-05-28T10:40:49;6.50;;;4.00;;
31764;SDS011;18338;53.240;8.798;2023-05-28T10:48:39;6.35;;;3.38;;
31764;SDS011;18338;53.240;8.798;2023-05-28T10:51:07;4.93;;;3.38;;
31764;SDS011;18338;53.240;8.798;2023-05-28T10:53:34;8.32;;;3.85;;
31764;SDS011;18338;53.240;8.798;2023-05-28T10:56:01;6.00;;;3.20;;
31764;SDS011;18338;53.240;8.798;2023-05-28T10:58:35;6.07;;;3.53;;
31764;SDS011;18338;53.240;8.798;2023-05-28T11:01:03;6.90;;;3.50;;
31764;SDS011;18338;53.240;8.798;2023-05-28T11:03:44;7.70;;;4.15;;
31764;SDS011;18338;53.240;8.798;2023-05-28T11:06:13;5.40;;;3.22;;
31764;SDS011;18338;53.240;8.798;2023-05-28T11:08:44;5.93;;;3.72;;
31764;SDS011;18338;53.240;8.798;2023-05-28T11:11:16;5.57;;;3.25;;
31764;SDS011;18338;53.240;8.798;2023-05-28T11:13:47;5.53;;;3.28;;
31764;SDS011;18338;53.240;8.798;2023-05-28T11:16:15;6.57;;;3.75;;
31764;SDS011;18338;53.240;8.798;2023-05-28T11:21:49;5.15;;;3.28;;
31764;SDS011;18338;53.240;8.798;2023-05-28T11:24:17;5.20;;;3.28;;
31764;SDS011;18338;53.240;8.798;2023-05-28T11:26:44;4.63;;;2.85;;
31764;SDS011;18338;53.240;8.798;2023-05-28T11:29:11;6.60;;;3.42;;
31764;SDS011;18338;53.240;8.798;2023-05-28T11:31:40;4.72;;;3.33;;
31764;SDS011;18338;53.240;8.798;2023-05-28T11:34:07;6.00;;;3.50;;
31764;SDS011;18338;53.240;8.798;2023-05-28T11:36:41;4.85;;;3.10;;
31764;SDS011;18338;53.240;8.798;2023-05-28T11:39:09;4.93;;;3.30;;
31764;SDS011;18338;53.240;8.798;2023-05-28T11:41:36;5.20;;;2.83;;
31764;SDS011;18338;53.240;8.798;2023-05-28T11:44:22;4.55;;;3.22;;
31764;SDS011;18338;53.240;8.798;2023-05-28T11:46:49;5.82;;;3.25;;
31764;SDS011;18338;53.240;8.798;2023-05-28T11:49:19;4.10;;;2.92;;
31764;SDS011;18338;53.240;8.798;2023-05-28T11:51:47;4.20;;;3.03;;
31764;SDS011;18338;53.240;8.798;2023-05-28T11:54:17;7.95;;;3.60;;
31764;SDS011;18338;53.240;8.798;2023-05-28T11:56:44;3.80;;;3.00;;
31764;SDS011;18338;53.240;8.798;2023-05-28T11:59:14;4.45;;;2.85;;
31764;SDS011;18338;53.240;8.798;2023-05-28T12:01:44;4.80;;;2.90;;
31764;SDS011;18338;53.240;8.798;2023-05-28T12:04:10;4.35;;;2.88;;
31764;SDS011;18338;53.240;8.798;2023-05-28T12:06:53;5.78;;;3.15;;
31764;SDS011;18338;53.240;8.798;2023-05-28T12:09:21;4.55;;;3.30;;
31764;SDS011;18338;53.240;8.798;2023-05-28T12:12:01;5.32;;;3.30;;
31764;SDS011;18338;53.240;8.798;2023-05-28T12:14:29;5.25;;;2.88;;
31764;SDS011;18338;53.240;8.798;2023-05-28T12:17:03;4.95;;;3.42;;
31764;SDS011;18338;53.240;8.798;2023-05-28T12:19:31;3.85;;;3.08;;
31764;SDS011;18338;53.240;8.798;2023-05-28T12:22:00;3.95;;;3.13;;
31764;SDS011;18338;53.240;8.798;2023-05-28T12:24:27;4.45;;;3.30;;
31764;SDS011;18338;53.240;8.798;2023-05-28T12:26:54;3.35;;;3.00;;
31764;SDS011;18338;53.240;8.798;2023-05-28T12:29:22;3.67;;;2.78;;
31764;SDS011;18338;53.240;8.798;2023-05-28T12:31:58;4.05;;;2.92;;
31764;SDS011;18338;53.240;8.798;2023-05-28T12:34:25;3.60;;;2.92;;
31764;SDS011;18338;53.240;8.798;2023-05-28T12:36:52;4.00;;;3.00;;
31764;SDS011;18338;53.240;8.798;2023-05-28T12:39:19;3.85;;;3.00;;
31764;SDS011;18338;53.240;8.798;2023-05-28T12:41:46;4.03;;;3.00;;
31764;SDS011;18338;53.240;8.798;2023-05-28T12:44:12;2.83;;;2.63;;
31764;SDS011;18338;53.240;8.798;2023-05-28T12:46:39;6.70;;;3.38;;
31764;SDS011;18338;53.240;8.798;2023-05-28T12:49:06;5.30;;;3.20;;
31764;SDS011;18338;53.240;8.798;2023-05-28T12:51:33;6.20;;;2.80;;
31764;SDS011;18338;53.240;8.798;2023-05-28T12:53:59;10.07;;;3.42;;
31764;SDS011;18338;53.240;8.798;2023-05-28T12:56:26;2.80;;;2.50;;
31764;SDS011;18338;53.240;8.798;2023-05-28T12:58:53;3.15;;;2.70;;
31764;SDS011;18338;53.240;8.798;2023-05-28T13:01:20;2.85;;;2.65;;
31764;SDS011;18338;53.240;8.798;2023-05-28T13:03:47;2.47;;;2.28;;
31764;SDS011;18338;53.240;8.798;2023-05-28T13:06:15;3.15;;;2.47;;
31764;SDS011;18338;53.240;8.798;2023-05-28T13:08:42;2.95;;;1.90;;
31764;SDS011;18338;53.240;8.798;2023-05-28T13:11:09;2.08;;;1.88;;
31764;SDS011;18338;53.240;8.798;2023-05-28T13:13:37;2.97;;;2.22;;
31764;SDS011;18338;53.240;8.798;2023-05-28T13:16:07;2.92;;;2.08;;
31764;SDS011;18338;53.240;8.798;2023-05-28T13:18:34;2.00;;;1.77;;
31764;SDS011;18338;53.240;8.798;2023-05-28T13:21:00;2.75;;;1.95;;
31764;SDS011;18338;53.240;8.798;2023-05-28T13:23:27;2.35;;;2.05;;
31764;SDS011;18338;53.240;8.798;2023-05-28T13:32:08;2.40;;;2.20;;
31764;SDS011;18338;53.240;8.798;2023-05-28T13:35:11;2.15;;;1.95;;
31764;SDS011;18338;53.240;8.798;2023-05-28T13:37:39;3.10;;;2.08;;
31764;SDS011;18338;53.240;8.798;2023-05-28T13:40:15;2.55;;;2.10;;
31764;SDS011;18338;53.240;8.798;2023-05-28T13:43:17;2.92;;;2.10;;
31764;SDS011;18338;53.240;8.798;2023-05-28T13:45:54;2.72;;;1.90;;
31764;SDS011;18338;53.240;8.798;2023-05-28T13:48:45;8.32;;;7.50;;
31764;SDS011;18338;53.240;8.798;2023-05-28T13:51:49;1.98;;;1.85;;
31764;SDS011;18338;53.240;8.798;2023-05-28T13:54:48;3.55;;;3.25;;
31764;SDS011;18338;53.240;8.798;2023-05-28T13:57:19;3.17;;;2.05;;
31764;SDS011;18338;53.240;8.798;2023-05-28T14:03:08;2.55;;;1.92;;
31764;SDS011;18338;53.240;8.798;2023-05-28T14:06:20;2.47;;;2.28;;
31764;SDS011;18338;53.240;8.798;2023-05-28T14:08:49;2.80;;;2.00;;
31764;SDS011;18338;53.240;8.798;2023-05-28T14:14:07;3.85;;;2.30;;
31764;SDS011;18338;53.240;8.798;2023-05-28T14:16:33;3.88;;;2.00;;
31764;SDS011;18338;53.240;8.798;2023-05-28T14:19:00;3.72;;;2.30;;
31764;SDS011;18338;53.240;8.798;2023-05-28T14:21:27;3.78;;;2.10;;
31764;SDS011;18338;53.240;8.798;2023-05-28T14:23:53;4.93;;;2.60;;
31764;SDS011;18338;53.240;8.798;2023-05-28T14:26:20;2.53;;;2.30;;
31764;SDS011;18338;53.240;8.798;2023-05-28T14:28:47;3.97;;;2.20;;
31764;SDS011;18338;53.240;8.798;2023-05-28T14:31:15;4.38;;;3.78;;
31764;SDS011;18338;53.240;8.798;2023-05-28T14:33:41;2.28;;;1.70;;
31764;SDS011;18338;53.240;8.798;2023-05-28T14:36:08;2.78;;;1.92;;
31764;SDS011;18338;53.240;8.798;2023-05-28T14:38:41;3.03;;;1.85;;
31764;SDS011;18338;53.240;8.798;2023-05-28T14:41:08;4.10;;;2.28;;
31764;SDS011;18338;53.240;8.798;2023-05-28T14:43:45;3.38;;;2.10;;
31764;SDS011;18338;53.240;8.798;2023-05-28T14:46:12;3.13;;;1.92;;
31764;SDS011;18338;53.240;8.798;2023-05-28T14:48:39;4.35;;;2.38;;
31764;SDS011;18338;53.240;8.798;2023-05-28T14:51:06;3.50;;;2.25;;
31764;SDS011;18338;53.240;8.798;2023-05-28T14:53:33;4.03;;;2.40;;
31764;SDS011;18338;53.240;8.798;2023-05-28T14:56:00;4.20;;;2.38;;
31764;SDS011;18338;53.240;8.798;2023-05-28T14:58:26;2.88;;;1.80;;
31764;SDS011;18338;53.240;8.798;2023-05-28T15:00:53;2.90;;;2.40;;
31764;SDS011;18338;53.240;8.798;2023-05-28T15:03:20;3.95;;;2.28;;
31764;SDS011;18338;53.240;8.798;2023-05-28T15:05:47;4.47;;;2.20;;
31764;SDS011;18338;53.240;8.798;2023-05-28T15:08:14;3.85;;;2.40;;
31764;SDS011;18338;53.240;8.798;2023-05-28T15:10:41;2.40;;;1.90;;
31764;SDS011;18338;53.240;8.798;2023-05-28T15:13:09;4.78;;;1.80;;
31764;SDS011;18338;53.240;8.798;2023-05-28T15:15:36;4.85;;;2.05;;
31764;SDS011;18338;53.240;8.798;2023-05-28T15:18:02;2.78;;;1.77;;
31764;SDS011;18338;53.240;8.798;2023-05-28T15:20:29;3.78;;;1.90;;
31764;SDS011;18338;53.240;8.798;2023-05-28T15:23:02;3.65;;;1.95;;
31764;SDS011;18338;53.240;8.798;2023-05-28T15:25:28;3.03;;;2.28;;
31764;SDS011;18338;53.240;8.798;2023-05-28T15:27:59;2.17;;;1.80;;
31764;SDS011;18338;53.240;8.798;2023-05-28T15:30:26;2.75;;;1.60;;
31764;SDS011;18338;53.240;8.798;2023-05-28T15:32:54;3.58;;;2.30;;
31764;SDS011;18338;53.240;8.798;2023-05-28T15:35:24;3.45;;;1.85;;
31764;SDS011;18338;53.240;8.798;2023-05-28T15:37:54;4.35;;;1.75;;
31764;SDS011;18338;53.240;8.798;2023-05-28T15:40:35;3.55;;;1.70;;
31764;SDS011;18338;53.240;8.798;2023-05-28T15:43:02;3.92;;;1.83;;